createdAt,value
2017-08-10T00:01:31.654Z,12.40
2017-08-10T00:03:59.077Z,12.00
2017-08-10T00:06:26.475Z,11.50
2017-08-10T00:08:53.876Z,12.63
2017-08-10T00:11:21.287Z,12.20
2017-08-10T00:13:48.685Z,12.37
2017-08-10T00:16:16.084Z,12.27
2017-08-10T00:18:43.494Z,13.00
2017-08-10T00:21:10.904Z,12.93
2017-08-10T00:23:38.303Z,13.03
2017-08-10T00:26:05.715Z,12.30
2017-08-10T00:28:33.134Z,13.63
2017-08-10T00:31:00.535Z,13.30
2017-08-10T00:33:27.947Z,14.87
2017-08-10T00:35:55.353Z,14.17
2017-08-10T00:38:22.760Z,14.67
2017-08-10T00:40:50.171Z,14.97
2017-08-10T00:43:17.572Z,15.67
2017-08-10T00:45:44.966Z,15.63
2017-08-10T00:48:12.390Z,15.90
2017-08-10T00:50:39.800Z,14.60
2017-08-10T00:53:07.259Z,14.33
2017-08-10T00:55:34.682Z,15.77
2017-08-10T00:58:02.092Z,16.10
2017-08-10T01:00:29.487Z,15.40
2017-08-10T01:02:56.899Z,16.70
2017-08-10T01:05:24.302Z,15.77
2017-08-10T01:07:51.702Z,16.40
2017-08-10T01:10:19.130Z,17.70
2017-08-10T01:12:46.522Z,17.37
2017-08-10T01:15:13.927Z,19.33
2017-08-10T01:17:41.344Z,19.30
2017-08-10T01:20:08.743Z,20.00
2017-08-10T01:22:36.140Z,19.90
2017-08-10T01:25:03.549Z,20.27
2017-08-10T01:27:30.947Z,22.00
2017-08-10T01:29:58.349Z,22.90
2017-08-10T01:32:25.759Z,22.53
2017-08-10T01:34:53.159Z,22.80
2017-08-10T01:37:20.579Z,22.90
2017-08-10T01:39:48.003Z,23.57
2017-08-10T01:42:15.404Z,24.90
2017-08-10T01:44:42.802Z,25.40
2017-08-10T01:47:10.207Z,23.53
2017-08-10T01:49:37.613Z,24.00
2017-08-10T01:52:05.012Z,25.90
2017-08-10T01:54:32.431Z,26.00
2017-08-10T01:56:59.832Z,26.53
2017-08-10T01:59:27.241Z,26.67
2017-08-10T02:01:54.651Z,27.73
2017-08-10T02:04:22.053Z,28.90
2017-08-10T02:06:49.459Z,28.73
2017-08-10T02:09:16.878Z,28.73
2017-08-10T02:11:44.263Z,29.23
2017-08-10T02:14:11.661Z,29.30
2017-08-10T02:16:39.079Z,32.70
2017-08-10T02:19:06.475Z,30.90
2017-08-10T02:21:33.881Z,31.10
2017-08-10T02:24:01.289Z,32.63
2017-08-10T02:26:28.683Z,31.73
2017-08-10T02:28:56.085Z,33.77
2017-08-10T02:31:23.499Z,33.67
2017-08-10T02:33:50.896Z,34.27
2017-08-10T02:36:18.307Z,34.60
2017-08-10T02:38:45.735Z,34.37
2017-08-10T02:41:13.123Z,35.50
2017-08-10T02:43:40.533Z,35.23
2017-08-10T02:46:07.943Z,36.40
2017-08-10T02:48:35.347Z,36.70
2017-08-10T02:51:02.752Z,37.57
2017-08-10T02:53:30.175Z,35.83
2017-08-10T02:55:57.594Z,38.57
2017-08-10T02:58:24.994Z,37.20
2017-08-10T03:00:52.407Z,37.80
2017-08-10T03:03:19.807Z,37.50
2017-08-10T03:05:47.202Z,37.10
2017-08-10T03:08:14.759Z,37.63
2017-08-10T03:10:42.168Z,38.20
2017-08-10T03:13:09.578Z,38.53
2017-08-10T03:15:36.991Z,37.47
2017-08-10T03:18:04.387Z,37.87
2017-08-10T03:20:31.784Z,38.53
2017-08-10T03:22:59.199Z,36.87
2017-08-10T03:25:26.600Z,38.50
2017-08-10T03:27:53.998Z,36.67
2017-08-10T03:30:21.409Z,35.90
2017-08-10T03:32:48.813Z,36.00
2017-08-10T03:35:16.215Z,35.00
2017-08-10T03:37:43.623Z,37.60
2017-08-10T03:40:11.036Z,36.60
2017-08-10T03:42:38.437Z,36.73
2017-08-10T03:45:05.851Z,36.23
2017-08-10T03:47:33.251Z,38.97
2017-08-10T03:50:00.676Z,35.07
2017-08-10T03:52:28.063Z,36.07
2017-08-10T03:54:55.467Z,34.57
2017-08-10T03:57:22.866Z,35.10
2017-08-10T03:59:50.279Z,34.47
2017-08-10T04:02:17.678Z,34.80
2017-08-10T04:04:45.079Z,31.27
2017-08-10T04:07:12.496Z,32.30
2017-08-10T04:09:39.896Z,29.07
2017-08-10T04:12:07.292Z,29.97
2017-08-10T04:14:34.738Z,29.23
2017-08-10T04:17:02.139Z,29.40
2017-08-10T04:19:29.544Z,28.83
2017-08-10T04:21:56.959Z,29.27
2017-08-10T04:24:24.367Z,27.17
2017-08-10T04:26:51.764Z,29.53
2017-08-10T04:29:19.188Z,30.40
2017-08-10T04:31:46.587Z,28.40
2017-08-10T04:34:13.983Z,30.90
2017-08-10T04:36:41.393Z,29.87
2017-08-10T04:39:08.802Z,28.03
2017-08-10T04:41:36.199Z,27.20
2017-08-10T04:44:03.628Z,27.53
2017-08-10T04:46:31.028Z,29.37
2017-08-10T04:48:58.424Z,28.00
2017-08-10T04:51:25.844Z,26.97
2017-08-10T04:53:53.234Z,26.07
2017-08-10T04:56:20.644Z,28.30
2017-08-10T04:58:48.062Z,27.83
2017-08-10T05:01:15.458Z,26.67
2017-08-10T05:03:42.858Z,27.00
2017-08-10T05:06:10.274Z,28.60
2017-08-10T05:08:37.666Z,27.30
2017-08-10T05:11:05.066Z,28.17
2017-08-10T05:13:32.493Z,25.30
2017-08-10T05:15:59.915Z,24.00
2017-08-10T05:18:27.308Z,26.00
2017-08-10T05:20:54.728Z,25.03
2017-08-10T05:23:22.126Z,23.83
2017-08-10T05:25:49.523Z,24.77
2017-08-10T05:28:16.937Z,24.70
2017-08-10T05:30:44.346Z,26.97
2017-08-10T05:33:11.738Z,26.37
2017-08-10T05:35:39.173Z,28.57
2017-08-10T05:38:06.582Z,25.30
2017-08-10T05:40:33.974Z,25.23
2017-08-10T05:43:01.386Z,26.33
2017-08-10T05:45:28.790Z,27.30
2017-08-10T05:47:56.188Z,24.27
2017-08-10T05:50:23.612Z,26.13
2017-08-10T05:52:51.027Z,26.40
2017-08-10T05:55:18.431Z,27.20
2017-08-10T05:57:45.859Z,26.43
2017-08-10T06:00:13.261Z,25.47
2017-08-10T06:02:40.672Z,25.30
2017-08-10T06:05:08.088Z,23.97
2017-08-10T06:07:35.486Z,23.80
2017-08-10T06:10:02.887Z,24.50
2017-08-10T06:12:30.304Z,25.73
2017-08-10T06:14:57.699Z,26.53
2017-08-10T06:17:25.098Z,26.07
2017-08-10T06:19:52.536Z,26.60
2017-08-10T06:22:19.936Z,28.63
2017-08-10T06:24:47.331Z,25.50
2017-08-10T06:27:14.746Z,25.63
2017-08-10T06:29:42.152Z,27.40
2017-08-10T06:32:09.551Z,25.13
2017-08-10T06:34:36.971Z,26.10
2017-08-10T06:37:04.367Z,28.43
2017-08-10T06:39:31.775Z,28.17
2017-08-10T06:41:59.186Z,29.17
2017-08-10T06:44:26.584Z,26.40
2017-08-10T06:46:53.987Z,27.30
2017-08-10T06:49:21.396Z,26.10
2017-08-10T06:51:48.791Z,26.10
2017-08-10T06:54:16.196Z,25.73
2017-08-10T06:56:43.622Z,25.23
2017-08-10T06:59:11.019Z,22.97
2017-08-10T07:01:38.420Z,22.67
2017-08-10T07:04:05.835Z,23.53
2017-08-10T07:06:33.235Z,22.37
2017-08-10T07:09:00.640Z,21.43
2017-08-10T07:11:28.087Z,20.33
2017-08-10T07:13:55.488Z,22.20
2017-08-10T07:16:22.884Z,20.00
2017-08-10T07:18:50.299Z,21.67
2017-08-10T07:21:17.698Z,22.33
2017-08-10T07:23:45.103Z,22.87
2017-08-10T07:26:12.510Z,22.37
2017-08-10T07:28:39.907Z,21.60
2017-08-10T07:31:07.312Z,22.63
2017-08-10T07:33:34.727Z,21.63
2017-08-10T07:36:02.122Z,21.97
2017-08-10T07:38:29.523Z,21.80
2017-08-10T07:40:56.939Z,20.27
2017-08-10T07:43:24.331Z,21.07
2017-08-10T07:45:51.735Z,21.00
2017-08-10T07:48:19.153Z,20.33
2017-08-10T07:50:46.552Z,19.00
2017-08-10T07:53:13.946Z,19.00
2017-08-10T07:55:41.363Z,18.47
2017-08-10T07:58:08.767Z,20.00
2017-08-10T08:00:36.175Z,18.77
2017-08-10T08:03:03.591Z,16.67
2017-08-10T08:05:30.990Z,16.57
2017-08-10T08:07:58.396Z,17.03
2017-08-10T08:10:25.816Z,17.80
2017-08-10T08:12:53.215Z,17.10
2017-08-10T08:15:20.615Z,16.47
2017-08-10T08:17:48.023Z,15.70
2017-08-10T08:20:15.423Z,16.60
2017-08-10T08:22:42.827Z,14.97
2017-08-10T08:25:10.246Z,15.80
2017-08-10T08:27:37.647Z,14.50
2017-08-10T08:30:05.043Z,15.07
2017-08-10T08:32:32.461Z,15.03
2017-08-10T08:34:59.864Z,14.73
2017-08-10T08:37:27.259Z,14.83
2017-08-10T08:39:54.663Z,13.63
2017-08-10T08:42:22.058Z,15.60
2017-08-10T08:44:49.460Z,14.50
2017-08-10T08:47:16.875Z,14.23
2017-08-10T08:49:44.275Z,14.47
2017-08-10T08:52:11.679Z,13.40
2017-08-10T08:54:39.086Z,12.30
2017-08-10T08:57:06.484Z,12.77
2017-08-10T08:59:33.884Z,12.87
2017-08-10T09:02:01.300Z,12.70
2017-08-10T09:04:28.703Z,13.37
2017-08-10T09:06:56.103Z,12.43
2017-08-10T09:09:23.523Z,12.53
2017-08-10T09:11:50.918Z,12.07
2017-08-10T09:14:18.324Z,12.20
2017-08-10T09:16:45.756Z,12.57
2017-08-10T09:19:13.159Z,12.00
2017-08-10T09:21:40.551Z,12.67
2017-08-10T09:24:07.972Z,13.00
2017-08-10T09:26:35.371Z,12.37
2017-08-10T09:29:02.774Z,12.30
2017-08-10T09:31:30.183Z,12.87
2017-08-10T09:33:57.585Z,12.00
2017-08-10T09:36:24.984Z,12.40
2017-08-10T09:38:52.401Z,11.40
2017-08-10T09:41:19.800Z,11.97
2017-08-10T09:43:47.203Z,13.63
2017-08-10T09:46:14.695Z,11.97
2017-08-10T09:48:42.079Z,11.30
2017-08-10T09:51:09.480Z,13.33
2017-08-10T09:53:36.890Z,12.70
2017-08-10T09:56:04.286Z,12.77
2017-08-10T09:58:31.695Z,14.03
2017-08-10T10:00:59.111Z,13.50
2017-08-10T10:03:26.519Z,14.10
2017-08-10T10:05:53.915Z,13.83
2017-08-10T10:08:21.335Z,13.37
2017-08-10T10:10:48.731Z,14.43
2017-08-10T10:13:16.127Z,14.13
2017-08-10T10:15:43.547Z,14.80
2017-08-10T10:18:10.943Z,12.87
2017-08-10T10:20:38.344Z,14.17
2017-08-10T10:23:05.756Z,13.57
2017-08-10T10:25:33.154Z,13.53
2017-08-10T10:28:00.546Z,12.43
2017-08-10T10:30:27.963Z,15.33
2017-08-10T10:32:55.371Z,13.60
2017-08-10T10:35:22.770Z,13.70
2017-08-10T10:37:50.184Z,13.60
2017-08-10T10:40:17.583Z,12.97
2017-08-10T10:42:44.978Z,12.37
2017-08-10T10:45:12.403Z,12.33
2017-08-10T10:47:39.807Z,12.60
2017-08-10T10:50:07.200Z,12.37
2017-08-10T10:52:34.618Z,11.80
2017-08-10T10:55:02.020Z,12.17
2017-08-10T10:57:29.422Z,12.93
2017-08-10T10:59:56.828Z,13.70
2017-08-10T11:02:24.227Z,14.13
2017-08-10T11:04:51.631Z,14.50
2017-08-10T11:07:19.042Z,13.87
2017-08-10T11:09:46.445Z,14.47
2017-08-10T11:12:13.839Z,15.50
2017-08-10T11:14:41.262Z,15.30
2017-08-10T11:17:08.663Z,16.50
2017-08-10T11:19:36.072Z,18.27
2017-08-10T11:22:03.485Z,18.57
2017-08-10T11:24:30.887Z,17.27
2017-08-10T11:26:58.288Z,17.40
2017-08-10T11:29:25.696Z,17.40
2017-08-10T11:31:53.095Z,16.30
2017-08-10T11:34:20.499Z,15.40
2017-08-10T11:36:47.914Z,16.70
2017-08-10T11:39:15.315Z,16.00
2017-08-10T11:41:42.715Z,16.13
2017-08-10T11:44:10.127Z,15.40
2017-08-10T11:46:37.557Z,14.90
2017-08-10T11:49:04.959Z,15.40
2017-08-10T11:51:32.383Z,13.47
2017-08-10T11:53:59.783Z,15.20
2017-08-10T11:56:27.185Z,14.70
2017-08-10T11:58:54.603Z,14.00
2017-08-10T12:01:22.003Z,15.20
2017-08-10T12:03:49.395Z,14.50
2017-08-10T12:06:16.815Z,12.90
2017-08-10T12:08:44.212Z,12.90
2017-08-10T12:11:11.621Z,13.23
2017-08-10T12:13:39.034Z,11.40
2017-08-10T12:16:06.440Z,12.10
2017-08-10T12:18:33.852Z,11.13
2017-08-10T12:21:01.270Z,11.90
2017-08-10T12:23:28.667Z,11.63
2017-08-10T12:25:56.887Z,12.73
2017-08-10T12:28:24.331Z,12.37
2017-08-10T12:30:51.724Z,11.50
2017-08-10T12:33:19.131Z,10.30
2017-08-10T12:35:46.548Z,10.23
2017-08-10T12:38:13.944Z,9.40
2017-08-10T12:40:41.348Z,9.30
2017-08-10T12:43:08.755Z,9.47
2017-08-10T12:45:36.155Z,13.00
2017-08-10T12:48:03.559Z,10.03
2017-08-10T12:50:30.972Z,10.97
2017-08-10T12:52:58.375Z,10.00
2017-08-10T12:55:25.787Z,10.77
2017-08-10T12:57:53.210Z,10.20
2017-08-10T13:00:20.618Z,10.30
2017-08-10T13:02:48.015Z,10.70
2017-08-10T13:05:15.436Z,10.73
2017-08-10T13:07:42.847Z,11.00
2017-08-10T13:10:10.246Z,11.27
2017-08-10T13:12:37.660Z,12.17
2017-08-10T13:15:05.063Z,12.60
2017-08-10T13:17:32.460Z,13.30
2017-08-10T13:19:59.880Z,12.57
2017-08-10T13:22:27.274Z,12.83
2017-08-10T13:24:54.683Z,11.10
2017-08-10T13:27:22.103Z,12.87
2017-08-10T13:29:49.511Z,11.67
2017-08-10T13:32:16.920Z,12.00
2017-08-10T13:34:44.703Z,12.63
2017-08-10T13:37:12.102Z,12.00
2017-08-10T13:39:39.499Z,12.20
2017-08-10T13:42:06.918Z,13.47
2017-08-10T13:44:34.317Z,12.30
2017-08-10T13:47:01.715Z,12.40
2017-08-10T13:49:29.139Z,12.10
2017-08-10T13:51:56.534Z,14.80
2017-08-10T13:54:23.939Z,15.57
2017-08-10T13:56:51.351Z,14.30
2017-08-10T13:59:18.760Z,15.47
2017-08-10T14:01:46.161Z,15.10
2017-08-10T14:04:13.587Z,16.43
2017-08-10T14:06:40.987Z,16.43
2017-08-10T14:09:08.391Z,15.40
2017-08-10T14:11:35.809Z,14.80
2017-08-10T14:14:03.203Z,13.00
2017-08-10T14:16:30.607Z,13.23
2017-08-10T14:18:58.022Z,14.50
2017-08-10T14:21:25.429Z,14.20
2017-08-10T14:23:52.831Z,12.57
2017-08-10T14:26:20.245Z,13.80
2017-08-10T14:28:47.638Z,13.90
2017-08-10T14:31:15.048Z,14.83
2017-08-10T14:33:42.463Z,15.97
2017-08-10T14:36:09.864Z,16.33
2017-08-10T14:38:37.264Z,17.20
2017-08-10T14:41:04.676Z,18.27
2017-08-10T14:43:32.079Z,17.83
2017-08-10T14:45:59.479Z,19.60
2017-08-10T14:48:26.895Z,17.50
2017-08-10T14:50:54.296Z,18.80
2017-08-10T14:53:21.712Z,22.30
2017-08-10T14:55:49.123Z,21.67
2017-08-10T14:58:16.523Z,21.40
2017-08-10T15:00:43.927Z,20.33
2017-08-10T15:03:11.339Z,17.97
2017-08-10T15:05:38.743Z,16.67
2017-08-10T15:08:06.155Z,15.63
2017-08-10T15:10:33.574Z,14.90
2017-08-10T15:13:00.991Z,15.83
2017-08-10T15:15:28.395Z,16.43
2017-08-10T15:17:55.815Z,16.73
2017-08-10T15:20:23.222Z,16.90
2017-08-10T15:22:50.630Z,16.47
2017-08-10T15:25:18.052Z,17.53
2017-08-10T15:27:45.455Z,17.53
2017-08-10T15:30:12.855Z,17.00
2017-08-10T15:32:40.280Z,16.93
2017-08-10T15:35:07.675Z,16.57
2017-08-10T15:37:35.075Z,18.07
2017-08-10T15:40:02.494Z,15.20
2017-08-10T15:42:29.894Z,17.00
2017-08-10T15:44:57.292Z,17.23
2017-08-10T15:47:24.702Z,18.17
2017-08-10T15:49:52.108Z,18.97
2017-08-10T15:52:19.507Z,17.07
2017-08-10T15:54:46.974Z,16.60
2017-08-10T15:57:14.379Z,15.73
2017-08-10T15:59:41.779Z,17.50
2017-08-10T16:02:09.198Z,18.30
2017-08-10T16:04:36.597Z,18.13
2017-08-10T16:07:03.998Z,19.93
2017-08-10T16:09:31.418Z,22.30
2017-08-10T16:11:58.841Z,22.07
2017-08-10T16:14:26.242Z,19.70
2017-08-10T16:16:53.671Z,23.47
2017-08-10T16:19:21.080Z,22.23
2017-08-10T16:21:48.483Z,20.63
2017-08-10T16:24:15.914Z,22.70
2017-08-10T16:26:43.307Z,21.67
2017-08-10T16:29:10.736Z,21.63
2017-08-10T16:31:38.150Z,22.77
2017-08-10T16:34:05.547Z,23.00
2017-08-10T16:36:32.946Z,24.03
2017-08-10T16:39:00.356Z,23.53
2017-08-10T16:41:27.768Z,22.60
2017-08-10T16:43:55.171Z,24.43
2017-08-10T16:46:22.594Z,27.20
2017-08-10T16:48:50.004Z,23.93
2017-08-10T16:51:17.399Z,24.60
2017-08-10T16:53:44.811Z,24.60
2017-08-10T16:56:12.210Z,24.20
2017-08-10T16:58:39.615Z,24.30
2017-08-10T17:01:07.033Z,25.03
2017-08-10T17:03:34.440Z,26.87
2017-08-10T17:06:01.844Z,27.60
2017-08-10T17:08:29.263Z,28.17
2017-08-10T17:10:56.671Z,26.90
2017-08-10T17:13:24.075Z,28.80
2017-08-10T17:15:51.483Z,27.73
2017-08-10T17:18:18.878Z,28.00
2017-08-10T17:20:46.288Z,28.80
2017-08-10T17:23:13.708Z,29.50
2017-08-10T17:25:41.113Z,31.20
2017-08-10T17:28:08.508Z,30.90
2017-08-10T17:30:35.933Z,30.10
2017-08-10T17:33:03.331Z,30.27
2017-08-10T17:35:30.727Z,30.57
2017-08-10T17:37:58.147Z,30.20
2017-08-10T17:40:25.554Z,31.13
2017-08-10T17:42:52.952Z,31.90
2017-08-10T17:45:20.369Z,31.77
2017-08-10T17:47:47.767Z,34.40
2017-08-10T17:50:15.163Z,35.10
2017-08-10T17:52:42.590Z,35.47
2017-08-10T17:55:09.996Z,39.03
2017-08-10T17:57:37.397Z,38.60
2017-08-10T18:00:04.955Z,40.60
2017-08-10T18:02:32.354Z,40.73
2017-08-10T18:04:59.759Z,41.60
2017-08-10T18:07:27.167Z,38.90
2017-08-10T18:09:54.571Z,37.57
2017-08-10T18:12:21.970Z,37.10
2017-08-10T18:14:49.387Z,36.30
2017-08-10T18:17:16.792Z,39.70
2017-08-10T18:19:44.191Z,38.70
2017-08-10T18:22:11.600Z,39.63
2017-08-10T18:24:38.999Z,39.93
2017-08-10T18:27:06.399Z,38.10
2017-08-10T18:29:33.810Z,37.77
2017-08-10T18:32:01.213Z,39.40
2017-08-10T18:34:28.622Z,40.87
2017-08-10T18:36:56.044Z,41.63
2017-08-10T18:39:23.443Z,37.07
2017-08-10T18:41:50.850Z,38.67
2017-08-10T18:44:18.264Z,39.13
2017-08-10T18:46:45.667Z,37.30
2017-08-10T18:49:13.063Z,37.13
2017-08-10T18:51:40.487Z,34.10
2017-08-10T18:54:07.887Z,30.10
2017-08-10T18:56:35.291Z,33.43
2017-08-10T18:59:02.698Z,34.80
2017-08-10T19:01:30.103Z,34.27
2017-08-10T19:03:57.511Z,31.93
2017-08-10T19:06:24.918Z,32.90
2017-08-10T19:08:52.315Z,34.30
2017-08-10T19:11:19.716Z,38.27
2017-08-10T19:13:47.130Z,35.70
2017-08-10T19:16:14.538Z,32.43
2017-08-10T19:18:41.935Z,38.50
2017-08-10T19:21:09.355Z,37.47
2017-08-10T19:23:36.760Z,37.37
2017-08-10T19:26:04.163Z,36.77
2017-08-10T19:28:31.579Z,29.33
2017-08-10T19:30:58.975Z,34.80
2017-08-10T19:33:26.379Z,32.13
2017-08-10T19:35:53.798Z,34.60
2017-08-10T19:38:21.198Z,34.13
2017-08-10T19:40:48.599Z,33.57
2017-08-10T19:43:16.025Z,35.20
2017-08-10T19:45:43.424Z,35.03
2017-08-10T19:48:10.827Z,34.30
2017-08-10T19:50:38.239Z,33.00
2017-08-10T19:53:05.642Z,36.30
2017-08-10T19:55:33.038Z,33.70
2017-08-10T19:58:00.454Z,37.80
2017-08-10T20:00:27.851Z,39.50
2017-08-10T20:02:55.263Z,39.10
2017-08-10T20:05:22.680Z,39.90
2017-08-10T20:07:50.080Z,39.80
2017-08-10T20:10:17.480Z,41.17
2017-08-10T20:12:44.897Z,43.07
2017-08-10T20:15:12.299Z,39.33
2017-08-10T20:17:39.696Z,42.37
2017-08-10T20:20:07.136Z,41.77
2017-08-10T20:22:34.538Z,43.43
2017-08-10T20:25:01.935Z,41.07
2017-08-10T20:27:29.361Z,44.60
2017-08-10T20:29:56.751Z,45.80
2017-08-10T20:32:24.150Z,44.73
2017-08-10T20:34:51.563Z,42.03
2017-08-10T20:37:18.973Z,41.93
2017-08-10T20:39:46.375Z,42.10
2017-08-10T20:42:13.791Z,43.00
2017-08-10T20:44:41.186Z,46.27
2017-08-10T20:47:08.591Z,45.83
2017-08-10T20:49:36.021Z,44.27
2017-08-10T20:52:03.413Z,43.87
2017-08-10T20:54:30.816Z,44.70
2017-08-10T20:56:58.232Z,48.07
2017-08-10T20:59:25.626Z,46.43
2017-08-10T21:01:53.031Z,45.00
2017-08-10T21:04:20.442Z,46.77
2017-08-10T21:06:47.854Z,48.17
2017-08-10T21:09:15.260Z,48.03
2017-08-10T21:11:42.670Z,49.63
2017-08-10T21:14:10.071Z,48.53
2017-08-10T21:16:37.470Z,51.40
2017-08-10T21:19:04.894Z,52.17
2017-08-10T21:21:32.291Z,54.37
2017-08-10T21:23:59.696Z,53.23
2017-08-10T21:26:27.103Z,52.57
2017-08-10T21:28:54.503Z,51.93
2017-08-10T21:31:21.903Z,53.87
2017-08-10T21:33:49.322Z,51.87
2017-08-10T21:36:16.732Z,51.40
2017-08-10T21:38:44.127Z,53.67
2017-08-10T21:41:11.539Z,50.57
2017-08-10T21:43:38.939Z,55.77
2017-08-10T21:46:06.340Z,54.30
2017-08-10T21:48:33.753Z,56.17
2017-08-10T21:51:01.151Z,58.50
2017-08-10T21:53:28.547Z,53.37
2017-08-10T21:55:55.967Z,59.47
2017-08-10T21:58:23.367Z,58.77
2017-08-10T22:00:50.784Z,65.47
2017-08-10T22:03:18.190Z,62.33
2017-08-10T22:05:45.586Z,58.77
2017-08-10T22:08:12.988Z,64.67
2017-08-10T22:10:40.404Z,63.77
2017-08-10T22:13:07.799Z,63.80
2017-08-10T22:15:35.195Z,67.17
2017-08-10T22:18:02.759Z,63.27
2017-08-10T22:20:30.155Z,67.10
2017-08-10T22:22:57.551Z,72.77
2017-08-10T22:25:24.971Z,65.53
2017-08-10T22:27:52.372Z,65.30
2017-08-10T22:30:19.779Z,68.97
2017-08-10T22:32:47.327Z,68.83
2017-08-10T22:35:14.748Z,76.97
2017-08-10T22:37:42.155Z,74.20
2017-08-10T22:40:09.571Z,68.97
2017-08-10T22:42:36.972Z,75.63
2017-08-10T22:45:04.392Z,77.27
2017-08-10T22:47:31.799Z,78.03
2017-08-10T22:49:59.216Z,79.50
2017-08-10T22:52:26.623Z,83.13
2017-08-10T22:54:54.027Z,75.53
2017-08-10T22:57:21.430Z,75.33
2017-08-10T22:59:48.831Z,76.93
2017-08-10T23:02:16.255Z,78.33
2017-08-10T23:04:43.655Z,80.47
2017-08-10T23:07:11.061Z,83.87
2017-08-10T23:09:38.472Z,74.83
2017-08-10T23:12:05.875Z,73.07
2017-08-10T23:14:33.280Z,78.50
2017-08-10T23:17:00.694Z,68.10
2017-08-10T23:19:28.102Z,76.20
2017-08-10T23:21:55.499Z,72.47
2017-08-10T23:24:22.915Z,70.60
2017-08-10T23:26:50.320Z,68.20
2017-08-10T23:29:17.724Z,62.10
2017-08-10T23:31:45.135Z,59.63
2017-08-10T23:34:12.538Z,54.67
2017-08-10T23:36:39.944Z,63.13
2017-08-10T23:39:07.351Z,63.90
2017-08-10T23:41:34.752Z,58.57
2017-08-10T23:44:02.158Z,59.13
2017-08-10T23:46:29.582Z,62.47
2017-08-10T23:48:56.984Z,49.97
2017-08-10T23:51:24.379Z,64.03
2017-08-10T23:53:51.796Z,62.83
2017-08-10T23:56:19.198Z,55.80
2017-08-10T23:58:46.595Z,61.47
